This is the latest recevied weather packets stored in our database for station/object VE1AIC-4. If no packets are shown the sender has not sent any weather packets the latest 10 day(s).
| Time | Temp. | Humidity | Pressure | Rain* | Wind** | Luminosity | Snow |
|---|---|---|---|---|---|---|---|
| 1777644683 | 8.33° C | 94% | 1006.8 hPa | 0.25 mm | - | 86 W/m² | - |
| 1777642234 | 8.33° C | 93% | 1007.2 hPa | 0 mm | - | 80 W/m² | - |
| 1777639227 | 8.33° C | 92% | 1007.3 hPa | 0 mm | - | 109 W/m² | - |
| 1777637478 | 7.78° C | 93% | 1007.4 hPa | 0 mm | - | 131 W/m² | - |
| 1777636840 | 7.78° C | 94% | 1007.6 hPa | 0 mm | - | 119 W/m² | - |
| 1777626641 | 7.22° C | 94% | 1008.7 hPa | 0 mm | - | 3 W/m² | - |
| 1777621842 | 7.22° C | 93% | 1009 hPa | 0 mm | - | 0 W/m² | - |
| 1777620626 | 7.22° C | 93% | 1009.1 hPa | 0 mm | - | 0 W/m² | - |
| 1777619546 | 6.67° C | 93% | 1009.3 hPa | 0 mm | - | 0 W/m² | - |
| 1777618942 | 7.22° C | 93% | 1009.6 hPa | 0 mm | - | 0 W/m² | - |
| 1777613434 | 6.67° C | 94% | 1010.7 hPa | 0 mm | - | 0 W/m² | - |
| 1777611048 | 6.11° C | 94% | 1010.9 hPa | 0 mm | - | 0 W/m² | - |
| 1777609840 | 6.11° C | 94% | 1011.1 hPa | 0 mm | - | 0 W/m² | - |
| 1777605034 | 5.56° C | 92% | 1012 hPa | 0 mm | - | 0 W/m² | - |
| 1777603845 | 5.56° C | 92% | 1012.6 hPa | 0 mm | - | 0 W/m² | - |
| 1777593688 | 6.67° C | 85% | 1013.3 hPa | 0 mm | - | 0 W/m² | - |
| 1777591828 | 7.22° C | 84% | 1013.2 hPa | 0 mm | - | 1 W/m² | - |
| 1777591270 | 7.78° C | 83% | 1013.2 hPa | 0 mm | - | 2 W/m² | - |
| 1777588853 | 8.89° C | 81% | 1013.1 hPa | 0 mm | - | 29 W/m² | - |
| 1777588232 | 8.89° C | 81% | 1013.2 hPa | 0 mm | - | 37 W/m² | - |
| 1777585848 | 10° C | 77% | 1013 hPa | 0 mm | - | 72 W/m² | - |
| 1777584666 | 10° C | 76% | 1013.1 hPa | 0 mm | - | 90 W/m² | - |
| 1777581733 | 11.11° C | 72% | 1013.4 hPa | 0 mm | - | 285 W/m² | - |
| 1777580420 | 11.11° C | 73% | 1013.5 hPa | 0 mm | - | 336 W/m² | - |
| 1777579242 | 11.11° C | 72% | 1013.4 hPa | 0 mm | - | 392 W/m² | - |
* Rain latest hour (hover to see other rain measurements)
** Current wind speed in m/s (hover to see current wind gust speed)